Time;durP1;ratioP1;P1;durP2;ratioP2;P2;SDS_P1;SDS_P2;PMS_P1;PMS_P2;Temp;Humidity;BMP_temperature;BMP_pressure;BME280_temperature;BME280_humidity;BME280_pressure;Samples;Min_cycle;Max_cycle;Signal;HPM_P1;HPM_P2
2023/04/28 00:00:43;;;;;;;8.60;0.70;;;11.50;99.90;;;;;;5073342;28;20384;-73
2023/04/28 00:03:09;;;;;;;1.67;1.58;;;11.60;99.90;;;;;;5055459;28;20436;-73
2023/04/28 00:05:35;;;;;;;0.90;0.75;;;11.70;99.90;;;;;;5073483;28;20025;-73
2023/04/28 00:08:02;;;;;;;4.40;1.55;;;11.80;99.90;;;;;;5072989;28;20035;-73
2023/04/28 00:10:29;;;;;;;1.40;1.30;;;12.10;99.90;;;;;;5073157;28;20028;-73
2023/04/28 00:12:55;;;;;;;0.10;0.10;;;12.00;99.90;;;;;;5073076;28;20424;-73
2023/04/28 00:15:21;;;;;;;1.10;1.10;;;12.10;99.90;;;;;;5055265;28;20032;-74
2023/04/28 00:17:46;;;;;;;0.15;0.15;;;12.10;99.90;;;;;;5073131;28;20020;-74
2023/04/28 00:20:12;;;;;;;16.17;0.70;;;12.10;99.90;;;;;;5073203;28;20479;-73
2023/04/28 00:22:38;;;;;;;0.20;0.20;;;11.90;99.90;;;;;;5071761;28;20044;-73
2023/04/28 00:25:05;;;;;;;2.22;0.50;;;12.00;99.90;;;;;;5072782;28;20056;-74
2023/04/28 00:27:32;;;;;;;1.30;1.23;;;12.00;99.90;;;;;;5073008;28;20047;-74
2023/04/28 00:29:58;;;;;;;1.10;0.80;;;11.80;99.90;;;;;;5072878;28;20380;-73
2023/04/28 00:32:23;;;;;;;1.08;0.47;;;11.80;99.90;;;;;;5073131;28;20032;-73
2023/04/28 00:34:49;;;;;;;0.68;0.40;;;11.80;99.90;;;;;;5054716;28;20381;-73
2023/04/28 00:37:15;;;;;;;0.10;0.10;;;11.80;99.90;;;;;;5054649;28;20028;-73
2023/04/28 00:39:41;;;;;;;0.85;0.85;;;11.60;99.90;;;;;;5072675;28;20040;-73
2023/04/28 00:42:06;;;;;;;0.45;0.32;;;11.70;99.90;;;;;;5054672;28;20087;-73
2023/04/28 00:44:32;;;;;;;1.38;1.20;;;11.70;99.90;;;;;;5054806;28;20016;-73
2023/04/28 00:46:59;;;;;;;1.77;1.67;;;11.50;99.90;;;;;;5072732;28;20381;-73
2023/04/28 00:49:25;;;;;;;21.70;2.30;;;11.60;99.90;;;;;;5054450;28;20032;-73
2023/04/28 00:51:51;;;;;;;1.30;0.90;;;11.50;99.90;;;;;;5072514;28;20122;-73
2023/04/28 00:54:17;;;;;;;0.25;0.25;;;11.40;99.90;;;;;;5072634;28;20029;-73
2023/04/28 00:56:43;;;;;;;9.95;2.97;;;11.40;99.90;;;;;;5072688;28;20028;-73
2023/04/28 00:59:09;;;;;;;1.42;1.33;;;11.40;99.90;;;;;;5038045;28;20035;-73
2023/04/28 01:01:35;;;;;;;2.45;1.23;;;11.40;99.90;;;;;;5054551;28;20012;-73
2023/04/28 01:04:01;;;;;;;1.42;1.38;;;11.30;99.90;;;;;;5072407;28;20046;-73
2023/04/28 01:06:28;;;;;;;0.20;0.20;;;11.30;99.90;;;;;;5054411;28;20024;-74
2023/04/28 01:08:56;;;;;;;0.10;0.10;;;11.40;99.90;;;;;;5054687;28;20031;-73
2023/04/28 01:11:22;;;;;;;7.78;2.25;;;11.40;99.90;;;;;;5054317;28;20016;-74
2023/04/28 01:14:06;;;;;;;1.02;0.52;;;11.40;99.90;;;;;;5054520;28;20033;-73
2023/04/28 01:16:37;;;;;;;1.65;1.13;;;11.40;99.90;;;;;;5054493;28;20053;-74
2023/04/28 01:19:07;;;;;;;0.13;0.13;;;11.50;99.90;;;;;;5054055;28;20401;-73
2023/04/28 01:21:34;;;;;;;0.65;0.65;;;11.50;99.90;;;;;;5054259;28;20063;-73
2023/04/28 01:24:20;;;;;;;0.47;0.30;;;11.50;99.90;;;;;;5072089;28;20067;-73
2023/04/28 01:26:46;;;;;;;2.22;2.05;;;11.50;99.90;;;;;;5053963;28;20056;-73
2023/04/28 01:29:12;;;;;;;0.40;0.40;;;11.40;99.90;;;;;;5072282;28;20021;-73
2023/04/28 01:31:38;;;;;;;2.13;1.83;;;11.60;99.90;;;;;;5072043;28;20065;-73
2023/04/28 01:34:04;;;;;;;0.40;0.40;;;11.60;99.90;;;;;;5090979;28;20044;-73
2023/04/28 01:36:30;;;;;;;4.28;2.13;;;11.50;99.90;;;;;;5076334;28;20032;-73
2023/04/28 01:38:56;;;;;;;2.17;1.70;;;11.60;99.90;;;;;;5059175;28;20058;-74
2023/04/28 01:41:22;;;;;;;0.10;0.10;;;11.60;99.90;;;;;;5074577;28;20087;-73
2023/04/28 01:43:48;;;;;;;0.40;0.40;;;11.60;99.90;;;;;;5074858;28;20020;-73
2023/04/28 01:46:13;;;;;;;0.70;0.70;;;11.60;99.90;;;;;;5076003;28;20518;-73
2023/04/28 01:48:39;;;;;;;8.25;3.85;;;11.40;99.90;;;;;;5074409;28;20053;-74
2023/04/28 01:51:05;;;;;;;1.23;1.13;;;11.40;99.90;;;;;;5076242;28;20094;-73
2023/04/28 01:53:31;;;;;;;0.52;0.52;;;11.40;99.90;;;;;;5074770;28;20032;-74
2023/04/28 01:55:57;;;;;;;1.92;1.75;;;11.20;99.90;;;;;;5074265;28;20537;-73
2023/04/28 01:58:24;;;;;;;1.33;1.23;;;11.30;99.90;;;;;;5075944;28;20163;-73
2023/04/28 02:00:50;;;;;;;0.40;0.40;;;11.30;99.90;;;;;;5057860;28;20040;-74
2023/04/28 02:03:18;;;;;;;12.25;1.88;;;11.40;99.90;;;;;;5066659;28;20052;-74
2023/04/28 02:05:43;;;;;;;3.90;1.55;;;11.40;99.90;;;;;;5074954;28;20046;-73
2023/04/28 02:08:10;;;;;;;0.57;0.57;;;11.50;99.90;;;;;;5075954;28;20475;-74
2023/04/28 02:10:35;;;;;;;4.57;1.05;;;11.40;99.90;;;;;;5065089;28;20033;-73
2023/04/28 02:13:01;;;;;;;0.10;0.10;;;11.40;99.90;;;;;;5069625;28;20038;-74
2023/04/28 02:15:27;;;;;;;0.10;0.10;;;11.40;99.90;;;;;;5081323;28;20019;-74
2023/04/28 02:17:52;;;;;;;1.65;1.55;;;11.60;99.90;;;;;;5080757;28;20493;-75
2023/04/28 02:20:18;;;;;;;2.10;1.10;;;11.70;99.90;;;;;;5081379;28;20024;-73
2023/04/28 02:22:44;;;;;;;1.27;1.02;;;11.60;99.90;;;;;;5081374;28;20032;-73
2023/04/28 02:25:11;;;;;;;0.73;0.73;;;11.60;99.90;;;;;;5081007;28;20496;-74
2023/04/28 02:27:37;;;;;;;6.07;1.15;;;11.50;99.90;;;;;;5080210;28;20031;-73
2023/04/28 02:30:06;;;;;;;0.65;0.65;;;11.50;99.90;;;;;;5079873;28;20587;-74
2023/04/28 02:32:32;;;;;;;1.38;1.27;;;11.50;99.90;;;;;;5077279;28;20033;-74
2023/04/28 02:34:58;;;;;;;0.10;0.10;;;11.50;99.90;;;;;;5070684;28;20025;-74
2023/04/28 02:37:25;;;;;;;4.20;2.08;;;11.70;99.90;;;;;;5070404;28;20024;-73
2023/04/28 02:39:51;;;;;;;0.10;0.10;;;11.80;99.90;;;;;;5079421;28;20449;-74
2023/04/28 02:42:17;;;;;;;0.10;0.10;;;11.80;99.90;;;;;;5073757;28;20098;-73
2023/04/28 02:44:44;;;;;;;0.55;0.55;;;11.80;99.90;;;;;;5073131;28;20052;-73
2023/04/28 02:47:09;;;;;;;0.63;0.63;;;11.80;99.90;;;;;;5074717;28;20055;-73
2023/04/28 02:49:35;;;;;;;0.77;0.35;;;11.70;99.90;;;;;;5073362;28;20027;-73
2023/04/28 02:52:01;;;;;;;0.57;0.57;;;11.80;99.90;;;;;;5073832;28;20431;-73
2023/04/28 02:54:27;;;;;;;0.10;0.10;;;11.80;99.90;;;;;;5073488;28;20021;-73
2023/04/28 02:56:57;;;;;;;0.80;0.80;;;12.00;99.90;;;;;;5073557;28;20028;-74
2023/04/28 02:59:23;;;;;;;0.43;0.43;;;11.90;99.90;;;;;;5056783;28;20028;-73
2023/04/28 03:01:50;;;;;;;0.15;0.15;;;11.90;99.90;;;;;;5073197;28;20492;-73
2023/04/28 03:04:16;;;;;;;0.40;0.40;;;11.90;99.90;;;;;;5074474;28;20465;-73
2023/04/28 03:06:43;;;;;;;0.10;0.10;;;12.00;99.90;;;;;;5074694;28;20028;-73
2023/04/28 03:09:10;;;;;;;0.20;0.20;;;12.10;99.90;;;;;;5073100;28;20073;-73
2023/04/28 03:11:36;;;;;;;0.10;0.10;;;12.10;99.90;;;;;;5074160;28;20025;-73
2023/04/28 03:14:02;;;;;;;2.67;0.60;;;12.10;99.90;;;;;;5073182;28;20020;-73
2023/04/28 03:16:28;;;;;;;0.38;0.38;;;12.00;99.90;;;;;;5074091;28;20170;-73
2023/04/28 03:18:55;;;;;;;0.95;0.95;;;12.00;99.90;;;;;;5073046;28;20477;-73
2023/04/28 03:21:23;;;;;;;0.63;0.63;;;12.20;99.90;;;;;;5073225;28;20024;-73
2023/04/28 03:23:49;;;;;;;0.40;0.40;;;12.10;99.90;;;;;;5073022;28;20107;-73
2023/04/28 03:26:15;;;;;;;2.72;0.82;;;12.20;99.90;;;;;;5072978;28;20038;-74
2023/04/28 03:28:41;;;;;;;0.15;0.15;;;12.30;99.90;;;;;;5056081;28;20039;-73
2023/04/28 03:31:07;;;;;;;1.92;1.55;;;12.10;99.90;;;;;;5073963;28;20107;-73
2023/04/28 03:33:33;;;;;;;0.00;0.00;;;12.10;99.90;;;;;;5073843;28;20076;-73
2023/04/28 03:35:59;;;;;;;0.00;0.00;;;11.90;99.90;;;;;;5056482;28;20020;-73
2023/04/28 03:38:25;;;;;;;0.55;0.35;;;12.00;99.90;;;;;;5073974;28;20473;-73
2023/04/28 03:40:52;;;;;;;0.95;0.95;;;11.90;99.90;;;;;;5056113;28;20021;-73
2023/04/28 03:43:32;;;;;;;0.10;0.10;;;11.80;99.90;;;;;;5073939;28;20039;-74
2023/04/28 03:46:16;;;;;;;0.85;0.85;;;11.80;99.90;;;;;;5049124;28;20395;-74
2023/04/28 03:48:44;;;;;;;0.43;0.43;;;11.90;99.90;;;;;;5055764;28;20025;-74
2023/04/28 03:51:11;;;;;;;0.10;0.10;;;12.00;99.90;;;;;;5055423;28;20158;-73
2023/04/28 03:53:36;;;;;;;0.43;0.43;;;11.80;99.90;;;;;;5089276;28;20044;-73
2023/04/28 03:56:04;;;;;;;0.10;0.10;;;11.90;99.90;;;;;;5055459;28;20024;-74
2023/04/28 03:58:30;;;;;;;0.20;0.20;;;11.90;99.90;;;;;;5055266;28;20029;-73
2023/04/28 04:00:55;;;;;;;4.32;1.92;;;12.00;99.90;;;;;;5073328;28;20134;-74
2023/04/28 04:03:24;;;;;;;0.10;0.10;;;12.00;99.90;;;;;;5073462;28;20427;-74
2023/04/28 04:05:50;;;;;;;0.52;0.52;;;12.00;99.90;;;;;;5073184;28;20025;-74
2023/04/28 04:08:16;;;;;;;0.73;0.73;;;12.00;99.90;;;;;;5055341;28;20116;-73
2023/04/28 04:10:42;;;;;;;0.08;0.08;;;11.80;99.90;;;;;;5089160;28;20036;-73
2023/04/28 04:13:08;;;;;;;0.10;0.10;;;11.80;99.90;;;;;;5072709;28;20045;-73
2023/04/28 04:15:34;;;;;;;2.53;1.83;;;11.90;99.90;;;;;;5055123;28;20058;-73
2023/04/28 04:18:00;;;;;;;0.10;0.10;;;11.90;99.90;;;;;;5055341;28;20031;-73
2023/04/28 04:20:33;;;;;;;0.25;0.25;;;11.80;99.90;;;;;;5054645;28;20029;-74
2023/04/28 04:23:00;;;;;;;0.90;0.88;;;11.80;99.90;;;;;;5055201;28;20032;-74
2023/04/28 04:25:27;;;;;;;3.90;1.67;;;11.70;99.90;;;;;;5054940;28;20012;-74
2023/04/28 04:27:54;;;;;;;2.65;0.93;;;11.60;99.90;;;;;;5054766;28;20055;-73
2023/04/28 04:30:20;;;;;;;0.82;0.82;;;11.70;99.90;;;;;;5054519;28;20024;-74
2023/04/28 04:32:46;;;;;;;7.43;2.70;;;11.60;99.90;;;;;;5054825;28;20040;-74
2023/04/28 04:35:12;;;;;;;6.28;2.78;;;11.70;99.90;;;;;;5038041;28;20449;-74
2023/04/28 04:37:38;;;;;;;0.35;0.35;;;11.80;99.90;;;;;;5088267;28;20024;-74
2023/04/28 04:40:05;;;;;;;0.82;0.82;;;11.70;99.90;;;;;;5065015;28;20051;-74
2023/04/28 04:42:37;;;;;;;0.38;0.38;;;11.70;99.90;;;;;;5070938;28;20029;-73
2023/04/28 04:45:09;;;;;;;0.10;0.10;;;11.70;99.90;;;;;;5071367;28;20024;-73
2023/04/28 04:47:35;;;;;;;0.20;0.20;;;11.90;99.90;;;;;;5070849;28;20038;-74
2023/04/28 04:50:01;;;;;;;0.10;0.10;;;11.90;99.90;;;;;;5070684;28;20383;-73
2023/04/28 04:52:28;;;;;;;0.55;0.55;;;12.10;99.90;;;;;;5070319;28;20044;-73
2023/04/28 04:54:55;;;;;;;0.20;0.20;;;12.10;99.90;;;;;;5070712;28;20542;-73
2023/04/28 04:57:22;;;;;;;0.10;0.10;;;11.90;99.90;;;;;;5070853;28;20115;-73
2023/04/28 05:00:07;;;;;;;0.57;0.57;;;12.00;99.90;;;;;;5072719;28;20032;-72
2023/04/28 05:02:33;;;;;;;3.72;1.92;;;11.80;99.90;;;;;;5070706;28;20028;-73
2023/04/28 05:05:01;;;;;;;0.10;0.10;;;11.80;99.90;;;;;;5070672;28;20020;-73
2023/04/28 05:07:26;;;;;;;5.47;2.15;;;11.80;99.90;;;;;;5070451;28;20389;-73
2023/04/28 05:09:52;;;;;;;4.95;2.78;;;11.50;99.90;;;;;;5070741;28;20377;-74
2023/04/28 05:12:18;;;;;;;4.38;1.77;;;11.30;99.90;;;;;;5070491;28;20036;-73
2023/04/28 05:14:45;;;;;;;2.53;1.17;;;11.30;99.90;;;;;;5070851;28;20071;-73
2023/04/28 05:17:11;;;;;;;2.13;1.08;;;11.30;99.90;;;;;;5054665;28;20115;-73
2023/04/28 05:19:39;;;;;;;3.60;2.05;;;11.30;99.90;;;;;;5071063;28;20025;-73
2023/04/28 05:22:06;;;;;;;2.65;1.67;;;11.30;99.90;;;;;;5070941;28;20094;-73
2023/04/28 05:24:34;;;;;;;3.72;2.70;;;11.20;99.90;;;;;;5071079;28;20024;-73
2023/04/28 05:27:01;;;;;;;0.57;0.57;;;11.20;99.90;;;;;;5054089;28;20482;-73
2023/04/28 05:29:27;;;;;;;1.10;1.05;;;11.30;99.90;;;;;;5071109;28;20154;-73
2023/04/28 05:31:53;;;;;;;3.97;1.95;;;11.30;99.90;;;;;;5072134;28;20389;-73
2023/04/28 05:34:21;;;;;;;6.28;2.55;;;11.40;99.90;;;;;;5071208;28;20533;-73
2023/04/28 05:36:47;;;;;;;1.05;1.00;;;11.40;99.90;;;;;;5070993;28;20097;-73
2023/04/28 05:39:13;;;;;;;3.22;0.95;;;11.30;99.90;;;;;;5070788;28;20032;-73
2023/04/28 05:41:40;;;;;;;2.00;1.90;;;11.30;99.90;;;;;;5070436;28;20025;-74
2023/04/28 05:44:06;;;;;;;3.42;1.40;;;11.40;99.90;;;;;;5071050;28;20491;-73
2023/04/28 05:46:32;;;;;;;0.35;0.35;;;11.40;99.90;;;;;;5070983;28;20040;-73
2023/04/28 05:48:59;;;;;;;5.13;2.95;;;11.30;99.90;;;;;;5070693;28;20438;-72
2023/04/28 05:51:29;;;;;;;0.68;0.68;;;11.30;99.90;;;;;;5070629;28;20063;-73
2023/04/28 05:53:55;;;;;;;0.57;0.57;;;11.10;99.90;;;;;;5070670;28;20029;-73
2023/04/28 05:56:22;;;;;;;1.90;1.80;;;11.20;99.90;;;;;;5054040;28;20024;-73
2023/04/28 05:58:49;;;;;;;5.00;2.65;;;11.20;99.90;;;;;;5059792;28;20028;-73
2023/04/28 06:01:16;;;;;;;2.30;1.95;;;11.20;99.90;;;;;;5052791;28;20031;-73
2023/04/28 06:03:42;;;;;;;3.13;2.50;;;11.00;99.90;;;;;;5056433;28;20040;-73
2023/04/28 06:06:08;;;;;;;6.60;2.53;;;11.20;99.90;;;;;;5052715;28;20021;-73
2023/04/28 06:08:34;;;;;;;17.10;8.43;;;11.20;99.90;;;;;;5049469;28;20029;-73
2023/04/28 06:11:03;;;;;;;3.25;2.97;;;11.10;99.90;;;;;;5057150;28;20017;-73
2023/04/28 06:13:29;;;;;;;4.07;3.08;;;11.20;99.90;;;;;;5066611;28;20029;-73
2023/04/28 06:15:55;;;;;;;0.65;0.60;;;11.00;99.90;;;;;;5058084;28;20023;-73
2023/04/28 06:18:23;;;;;;;11.77;6.80;;;11.10;99.90;;;;;;5055399;28;20044;-73
2023/04/28 06:20:49;;;;;;;7.53;4.80;;;11.10;99.90;;;;;;5042135;28;20523;-73
2023/04/28 06:23:15;;;;;;;0.90;0.82;;;11.20;99.90;;;;;;5049278;28;20035;-74
2023/04/28 06:25:44;;;;;;;1.45;1.35;;;11.20;99.90;;;;;;5057092;28;20033;-73
2023/04/28 06:28:12;;;;;;;3.80;2.65;;;11.30;99.90;;;;;;5059979;28;20021;-72
2023/04/28 06:30:38;;;;;;;2.60;2.25;;;11.30;99.90;;;;;;5056439;28;20035;-71
2023/04/28 06:33:04;;;;;;;8.43;5.25;;;11.30;99.90;;;;;;5054704;28;20036;-71
2023/04/28 06:35:30;;;;;;;1.35;1.25;;;11.40;99.90;;;;;;5051327;28;20374;-71
2023/04/28 06:37:55;;;;;;;1.73;1.63;;;11.50;99.90;;;;;;5050161;28;20039;-72
2023/04/28 06:40:21;;;;;;;0.55;0.55;;;11.50;99.90;;;;;;5056282;28;20058;-72
2023/04/28 06:42:52;;;;;;;0.77;0.60;;;11.50;99.90;;;;;;5038547;28;20404;-72
2023/04/28 06:45:23;;;;;;;5.47;2.28;;;11.70;99.90;;;;;;5036046;28;20330;-72
2023/04/28 06:47:49;;;;;;;7.88;3.35;;;11.80;99.90;;;;;;5047664;28;20028;-72
2023/04/28 06:50:15;;;;;;;3.45;1.48;;;11.80;99.90;;;;;;5038350;28;20044;-72
2023/04/28 06:52:41;;;;;;;8.77;5.00;;;11.80;99.90;;;;;;5036474;28;20033;-72
2023/04/28 06:55:11;;;;;;;3.92;2.65;;;11.80;99.90;;;;;;5048860;28;20030;-72
2023/04/28 06:57:36;;;;;;;0.28;0.28;;;11.80;99.90;;;;;;5039232;28;20078;-72
2023/04/28 07:00:03;;;;;;;2.80;2.47;;;11.70;99.90;;;;;;5050259;28;20058;-72
2023/04/28 07:02:29;;;;;;;1.38;1.27;;;11.90;99.90;;;;;;5046195;28;20490;-72
2023/04/28 07:04:55;;;;;;;1.65;1.08;;;11.90;99.90;;;;;;5043945;28;20029;-72
2023/04/28 07:07:21;;;;;;;2.20;2.05;;;12.10;99.90;;;;;;5040780;28;20373;-71
2023/04/28 07:09:46;;;;;;;0.40;0.40;;;12.10;99.90;;;;;;5050139;28;20021;-71
2023/04/28 07:12:12;;;;;;;0.82;0.82;;;12.40;99.90;;;;;;5039347;28;20037;-71
2023/04/28 07:14:38;;;;;;;0.77;0.57;;;12.80;99.90;;;;;;5041297;28;20061;-71
2023/04/28 07:17:04;;;;;;;8.13;3.58;;;12.70;99.90;;;;;;5044572;28;20021;-72
2023/04/28 07:19:30;;;;;;;0.50;0.50;;;12.70;99.90;;;;;;5045668;28;20063;-72
2023/04/28 07:21:55;;;;;;;0.77;0.77;;;12.90;99.90;;;;;;5048352;28;20041;-72
2023/04/28 07:24:22;;;;;;;0.85;0.38;;;12.90;99.90;;;;;;5041460;28;20032;-72
2023/04/28 07:26:48;;;;;;;2.92;2.22;;;13.00;99.90;;;;;;5039017;28;20137;-72
2023/04/28 07:29:15;;;;;;;0.15;0.15;;;13.10;99.90;;;;;;5055530;28;20078;-72
2023/04/28 07:31:40;;;;;;;9.40;3.83;;;13.30;99.90;;;;;;5044254;28;20025;-72
2023/04/28 07:34:06;;;;;;;13.68;3.50;;;13.60;99.90;;;;;;5043431;28;20029;-73
2023/04/28 07:36:32;;;;;;;3.50;1.73;;;13.40;99.90;;;;;;5037988;28;20072;-72
2023/04/28 07:39:00;;;;;;;4.20;3.78;;;13.40;99.90;;;;;;5044382;28;20511;-72
2023/04/28 07:41:26;;;;;;;7.28;3.88;;;13.30;99.90;;;;;;5045123;28;20021;-72
2023/04/28 07:43:52;;;;;;;7.22;3.47;;;13.30;99.90;;;;;;5037836;28;20339;-72
2023/04/28 07:46:18;;;;;;;2.83;2.60;;;13.40;99.90;;;;;;5033296;28;20044;-72
2023/04/28 07:48:44;;;;;;;1.85;1.48;;;13.40;99.90;;;;;;5035766;28;20022;-72
2023/04/28 07:51:10;;;;;;;2.17;2.03;;;13.50;99.90;;;;;;5039728;28;20389;-72
2023/04/28 07:53:36;;;;;;;5.80;2.85;;;13.70;99.90;;;;;;5038639;28;20084;-71
2023/04/28 07:56:02;;;;;;;3.63;2.55;;;13.70;99.90;;;;;;5040407;28;20039;-73
2023/04/28 07:58:28;;;;;;;7.05;3.10;;;13.70;99.90;;;;;;5036256;28;20088;-71
2023/04/28 08:00:54;;;;;;;0.85;0.85;;;13.90;99.90;;;;;;5040336;28;20416;-72
2023/04/28 08:03:20;;;;;;;14.40;6.90;;;14.20;99.90;;;;;;5043966;28;20036;-72
2023/04/28 08:05:46;;;;;;;15.23;4.35;;;14.10;99.90;;;;;;5045161;28;20017;-71
2023/04/28 08:08:11;;;;;;;8.43;5.45;;;14.10;99.90;;;;;;5040372;28;20458;-73
2023/04/28 08:10:40;;;;;;;3.90;2.45;;;14.10;99.90;;;;;;5045514;28;20538;-71
2023/04/28 08:13:06;;;;;;;3.28;2.03;;;14.10;99.90;;;;;;5038932;28;20067;-72
2023/04/28 08:15:32;;;;;;;5.60;3.92;;;14.20;99.90;;;;;;5044329;28;20036;-72
2023/04/28 08:17:58;;;;;;;4.22;1.15;;;14.20;99.90;;;;;;5037759;28;20040;-71
2023/04/28 08:20:24;;;;;;;6.45;3.53;;;14.30;99.90;;;;;;5032881;28;20068;-74
2023/04/28 08:22:49;;;;;;;2.85;1.45;;;14.50;99.90;;;;;;5038880;28;20079;-74
2023/04/28 08:25:17;;;;;;;2.42;1.05;;;14.50;99.90;;;;;;5036869;28;20056;-72
2023/04/28 08:27:43;;;;;;;0.30;0.30;;;14.60;99.90;;;;;;5037193;28;20374;-72
2023/04/28 08:30:09;;;;;;;1.98;1.83;;;14.60;99.90;;;;;;5043261;28;20031;-72
2023/04/28 08:32:35;;;;;;;1.10;0.95;;;14.60;99.90;;;;;;5036151;28;20037;-72
2023/04/28 08:35:02;;;;;;;1.20;1.08;;;14.70;99.90;;;;;;5034425;28;20025;-73
2023/04/28 08:37:28;;;;;;;2.17;1.67;;;14.50;99.90;;;;;;5022500;28;20056;-71
2023/04/28 08:40:00;;;;;;;8.60;1.10;;;14.60;99.90;;;;;;5024369;28;20043;-73
2023/04/28 08:42:33;;;;;;;1.75;1.48;;;14.50;99.90;;;;;;5039991;28;20100;-73
2023/04/28 08:44:59;;;;;;;0.85;0.85;;;14.50;99.90;;;;;;5034888;28;20470;-71
2023/04/28 08:47:37;;;;;;;1.35;1.17;;;14.60;99.90;;;;;;5040504;28;20027;-72
2023/04/28 08:50:07;;;;;;;0.32;0.32;;;14.60;99.90;;;;;;5037620;28;20021;-74
2023/04/28 08:52:35;;;;;;;0.63;0.63;;;14.80;99.90;;;;;;5034860;28;20041;-72
2023/04/28 08:55:06;;;;;;;0.52;0.52;;;14.90;99.90;;;;;;5034420;28;20075;-72
2023/04/28 08:57:38;;;;;;;0.30;0.30;;;15.00;99.90;;;;;;5041804;28;20420;-72
2023/04/28 09:00:04;;;;;;;;;;;15.10;99.90;;;;;;5040543;28;20143;-72
2023/04/28 09:02:31;;;;;;;0.47;0.38;;;15.10;99.90;;;;;;5038310;28;20399;-72
2023/04/28 09:04:57;;;;;;;1.67;1.23;;;15.20;99.90;;;;;;5034476;28;20025;-72
2023/04/28 09:07:23;;;;;;;0.50;0.50;;;15.00;99.90;;;;;;5035253;28;20490;-72
2023/04/28 09:09:49;;;;;;;0.30;0.30;;;14.80;99.90;;;;;;5037372;28;20515;-72
2023/04/28 09:12:16;;;;;;;2.72;1.63;;;14.90;99.90;;;;;;5038864;28;20025;-72
2023/04/28 09:14:42;;;;;;;0.75;0.63;;;14.80;99.90;;;;;;5039773;28;20028;-72
2023/04/28 09:17:11;;;;;;;0.77;0.70;;;14.70;99.90;;;;;;5040735;28;20389;-72
2023/04/28 09:19:38;;;;;;;0.68;0.45;;;14.80;99.90;;;;;;5038990;28;20057;-72
2023/04/28 09:22:05;;;;;;;0.47;0.32;;;14.80;99.90;;;;;;5068895;28;20032;-72
2023/04/28 09:24:41;;;;;;;2.08;0.80;;;14.90;99.90;;;;;;5037297;28;20032;-72
2023/04/28 09:27:10;;;;;;;2.20;1.50;;;14.80;99.90;;;;;;5035365;28;20049;-72
2023/04/28 09:29:37;;;;;;;0.82;0.63;;;14.80;99.90;;;;;;5053825;28;20025;-72
2023/04/28 09:32:14;;;;;;;0.43;0.35;;;14.70;99.90;;;;;;5053722;28;20231;-72
2023/04/28 09:34:44;;;;;;;1.38;1.02;;;14.70;99.90;;;;;;5038601;28;20077;-73
2023/04/28 09:37:18;;;;;;;0.43;0.43;;;14.80;99.90;;;;;;5040777;28;20037;-73
2023/04/28 09:39:54;;;;;;;0.17;0.17;;;14.90;99.90;;;;;;5046677;28;20813;-74
2023/04/28 09:42:40;;;;;;;0.10;0.10;;;15.20;99.90;;;;;;5032035;28;20033;-73
2023/04/28 09:45:13;;;;;;;1.95;0.80;;;14.90;99.90;;;;;;5032800;28;20481;-73
2023/04/28 09:47:46;;;;;;;1.40;1.30;;;14.80;99.90;;;;;;5037637;28;20013;-73
2023/04/28 09:50:15;;;;;;;0.80;0.80;;;14.90;99.90;;;;;;5042207;28;20033;-73
2023/04/28 09:52:47;;;;;;;0.10;0.10;;;14.90;99.90;;;;;;5043631;28;20064;-73
2023/04/28 09:55:14;;;;;;;1.27;0.98;;;15.00;99.90;;;;;;5042171;28;20104;-73
2023/04/28 09:57:43;;;;;;;0.63;0.63;;;14.90;99.90;;;;;;5042841;28;20025;-73
2023/04/28 10:00:09;;;;;;;2.78;1.88;;;14.90;99.90;;;;;;5042490;28;20032;-71
2023/04/28 10:02:37;;;;;;;0.50;0.50;;;15.00;99.90;;;;;;5034938;28;20473;-73
2023/04/28 10:05:04;;;;;;;1.85;1.17;;;14.80;99.90;;;;;;5039231;28;20065;-72
2023/04/28 10:07:34;;;;;;;0.60;0.57;;;14.90;99.90;;;;;;5019688;28;20022;-71
2023/04/28 10:10:01;;;;;;;2.65;2.05;;;15.00;99.90;;;;;;5042986;28;20075;-72
2023/04/28 10:12:27;;;;;;;1.95;1.27;;;15.00;99.90;;;;;;5034874;28;20030;-70
2023/04/28 10:14:53;;;;;;;0.82;0.68;;;14.90;99.90;;;;;;5042195;28;20021;-70
2023/04/28 10:17:21;;;;;;;2.22;1.20;;;14.90;99.90;;;;;;5037541;28;20067;-71
2023/04/28 10:19:49;;;;;;;4.05;1.45;;;15.00;99.90;;;;;;5041306;28;20037;-69
2023/04/28 10:22:45;;;;;;;1.35;1.05;;;15.10;99.90;;;;;;5042855;28;20044;-71
2023/04/28 10:25:11;;;;;;;0.65;0.65;;;15.00;99.90;;;;;;5042573;28;20025;-72
2023/04/28 10:27:45;;;;;;;0.88;0.88;;;15.00;99.90;;;;;;5055813;28;20031;-72
2023/04/28 10:30:16;;;;;;;4.10;1.33;;;14.90;99.90;;;;;;5037984;28;20043;-72
2023/04/28 10:32:44;;;;;;;5.47;0.68;;;14.80;99.90;;;;;;5057149;28;20049;-72
2023/04/28 10:35:29;;;;;;;2.10;1.67;;;14.80;99.90;;;;;;5048287;28;20112;-71
2023/04/28 10:38:07;;;;;;;0.30;0.30;;;14.60;99.90;;;;;;5052455;28;20029;-71
2023/04/28 10:40:42;;;;;;;0.77;0.77;;;14.40;99.90;;;;;;5054848;28;20033;-71
2023/04/28 10:43:12;;;;;;;0.80;0.63;;;14.30;99.90;;;;;;5040603;28;20041;-71
2023/04/28 10:45:55;;;;;;;0.40;0.40;;;14.40;99.90;;;;;;5057281;28;20021;-71
2023/04/28 10:48:47;;;;;;;2.40;1.38;;;14.50;99.90;;;;;;5061911;28;20458;-74
2023/04/28 10:51:16;;;;;;;0.68;0.68;;;14.70;99.90;;;;;;5045924;28;20037;-71
2023/04/28 10:53:44;;;;;;;2.90;1.48;;;14.90;99.90;;;;;;5056153;28;20045;-74
2023/04/28 10:56:11;;;;;;;3.63;1.20;;;14.90;99.90;;;;;;5037761;28;20542;-74
2023/04/28 10:58:41;;;;;;;0.73;0.73;;;14.70;99.90;;;;;;5037461;28;20025;-74
2023/04/28 11:01:25;;;;;;;3.15;1.60;;;14.70;99.90;;;;;;5057982;28;20482;-74
2023/04/28 11:04:11;;;;;;;1.38;1.02;;;14.50;99.90;;;;;;5052506;28;20021;-71
2023/04/28 11:06:45;;;;;;;3.05;1.70;;;14.50;99.90;;;;;;5047097;28;20037;-74
2023/04/28 11:09:14;;;;;;;8.05;2.10;;;14.40;99.90;;;;;;5053638;28;20033;-74
2023/04/28 11:11:59;;;;;;;4.68;2.53;;;14.40;99.90;;;;;;5045327;28;20041;-73
2023/04/28 11:14:28;;;;;;;2.17;0.75;;;14.10;99.90;;;;;;5055040;28;20123;-73
2023/04/28 11:16:58;;;;;;;2.53;1.17;;;13.90;99.90;;;;;;5073489;28;20024;-73
2023/04/28 11:19:35;;;;;;;0.40;0.40;;;14.00;99.90;;;;;;5073431;28;20036;-73
2023/04/28 11:22:04;;;;;;;2.20;0.88;;;14.20;99.90;;;;;;5052902;28;20028;-73
2023/04/28 11:24:31;;;;;;;3.80;1.92;;;14.00;99.90;;;;;;5073257;28;20401;-73
2023/04/28 11:26:57;;;;;;;1.77;1.15;;;14.10;99.90;;;;;;5073173;28;20029;-73
2023/04/28 11:29:40;;;;;;;0.45;0.40;;;14.10;99.90;;;;;;5067754;28;20094;-73
2023/04/28 11:32:07;;;;;;;9.20;4.75;;;14.10;99.90;;;;;;5066959;28;20105;-73
2023/04/28 11:34:34;;;;;;;3.08;1.85;;;13.90;99.90;;;;;;5055364;28;20119;-74
2023/04/28 11:37:00;;;;;;;1.75;0.88;;;14.00;99.90;;;;;;5073048;28;20029;-74
2023/04/28 11:39:30;;;;;;;0.90;0.82;;;14.00;99.90;;;;;;5072974;28;20116;-73
2023/04/28 11:41:57;;;;;;;0.88;0.65;;;14.10;99.90;;;;;;5050058;28;20030;-74
2023/04/28 11:44:26;;;;;;;4.40;1.17;;;14.20;99.90;;;;;;5042830;28;20111;-74
2023/04/28 11:46:59;;;;;;;2.20;0.73;;;14.20;99.90;;;;;;5072807;28;20028;-73
2023/04/28 11:49:45;;;;;;;0.82;0.70;;;14.30;99.90;;;;;;5072705;28;20017;-73
2023/04/28 11:52:12;;;;;;;1.65;0.90;;;14.20;99.90;;;;;;5072516;28;20066;-73
2023/04/28 11:54:41;;;;;;;0.30;0.30;;;14.40;99.90;;;;;;5072649;28;20020;-73
2023/04/28 11:57:20;;;;;;;2.45;2.08;;;14.20;99.90;;;;;;5072428;28;20036;-73
2023/04/28 11:59:46;;;;;;;10.18;5.93;;;14.30;99.90;;;;;;5062787;28;20073;-75
2023/04/28 12:02:12;;;;;;;13.63;7.57;;;14.30;99.90;;;;;;5054867;28;20056;-74
2023/04/28 12:04:40;;;;;;;1.08;1.00;;;14.20;99.90;;;;;;5072146;28;20040;-74
2023/04/28 12:07:14;;;;;;;12.00;4.85;;;14.40;99.90;;;;;;5072493;28;20041;-74
2023/04/28 12:09:43;;;;;;;0.17;0.17;;;14.60;99.90;;;;;;5054461;28;20058;-74
2023/04/28 12:12:31;;;;;;;0.35;0.35;;;14.90;99.90;;;;;;5054215;28;20040;-74
2023/04/28 12:15:06;;;;;;;0.65;0.65;;;15.00;99.90;;;;;;5054409;28;20461;-73
2023/04/28 12:17:41;;;;;;;2.50;1.80;;;15.20;99.90;;;;;;5071735;28;20082;-73
2023/04/28 12:20:10;;;;;;;0.75;0.75;;;15.50;99.90;;;;;;5071494;28;20033;-73
2023/04/28 12:22:46;;;;;;;1.88;1.65;;;15.60;99.90;;;;;;5072232;28;20032;-73
2023/04/28 12:25:15;;;;;;;2.25;1.05;;;15.40;99.90;;;;;;5072003;28;20456;-73
2023/04/28 12:27:57;;;;;;;7.18;1.85;;;15.30;99.90;;;;;;5071927;28;20074;-73
2023/04/28 12:30:23;;;;;;;0.77;0.40;;;15.20;99.90;;;;;;5065309;28;20120;-73
2023/04/28 12:32:50;;;;;;;2.05;1.30;;;15.20;99.90;;;;;;5054030;28;20048;-73
2023/04/28 12:35:16;;;;;;;2.88;2.47;;;15.50;99.90;;;;;;5053951;28;20032;-73
2023/04/28 12:37:43;;;;;;;1.35;1.25;;;15.20;99.90;;;;;;5054329;28;20146;-74
2023/04/28 12:40:09;;;;;;;6.28;4.80;;;15.10;99.90;;;;;;5071637;28;20459;-73
2023/04/28 12:42:36;;;;;;;11.23;6.32;;;14.90;99.90;;;;;;5053768;28;20036;-74
2023/04/28 12:45:02;;;;;;;7.22;3.90;;;14.80;99.90;;;;;;5071416;28;20032;-73
2023/04/28 12:47:28;;;;;;;0.73;0.73;;;14.80;99.90;;;;;;5053351;28;20385;-73
2023/04/28 12:49:53;;;;;;;1.88;1.48;;;14.80;99.90;;;;;;5072663;28;20046;-73